Mount Robson — P3TB9 — position and weather

sailwx.info

Track history (hours):
 
Tides and Currents Weather Stations Pressure Air Temp Water Temp Dewpoint Dewpoint Depression Visibility Wind Speed Wind Dir Waves Ship Positions

Mount Robson

Last reported at 2014-Aug-27 03:33 UTC. Time now 2014-Aug-31 00:37 UTC.
Position N 34°30' E 029°42'.

Length 181 m; draft 7.4 m.

Type: Tanker. MMSI: 210253000.

Date/timePositionNaut miles runAvg speedWind from/ knotsBaromVisibWave heightAir tempDewpointWater temp
2014-Aug-27 03:33N 34°30' E 029°42'1713.1
2014-Aug-27 02:14N 34°30' E 030°03'1013.4
2014-Aug-27 01:28N 34°30' E 030°15'1313.3
2014-Aug-27 00:29N 34°29' E 030°31'2613.5
2014-Aug-26 22:33N 34°28' E 031°03'1313.5
2014-Aug-26 21:33N 34°28' E 031°19'1313.4
2014-Aug-26 20:33N 34°27' E 031°35'1312.9
2014-Aug-26 19:33N 34°27' E 031°51'1312.8
2014-Aug-26 18:33N 34°26' E 032°07'1312.5
2014-Aug-26 17:33N 34°26' E 032°22'1312.8
2014-Aug-26 16:33N 34°25' E 032°37'1313.4
2014-Aug-26 15:33N 34°25' E 032°53'1312.8
2014-Aug-26 14:34N 34°25' E 033°09'1212.3
2014-Aug-26 13:33N 34°26' E 033°24'1212.5
2014-Aug-26 12:33N 34°27' E 033°39'1312.6
2014-Aug-26 11:33N 34°27' E 033°54'1312.8
2014-Aug-26 10:33N 34°28' E 034°10'1312.8
2014-Aug-26 09:33N 34°28' E 034°25'1312.9
2014-Aug-26 08:33N 34°29' E 034°41'5712.6
2014-Aug-26 04:05N 34°31' E 035°50'3 3.0
2014-Aug-26 03:04N 34°28' E 035°51'2 0.1
2014-Aug-25 01:27N 34°30' E 035°51'0 0.1
2014-Aug-25 00:22N 34°30' E 035°51'10 8.5
2014-Aug-24 23:10N 34°27' E 035°39'1313.3
2014-Aug-24 22:11N 34°14' E 035°33'912.8
2014-Aug-24 21:31N 34°06' E 035°32'1111.8
2014-Aug-24 20:33N 33°55' E 035°33'0 0.2
2014-Aug-24 19:33N 33°55' E 035°33'0 0.0
2014-Aug-24 16:33N 33°55' E 035°33'  
2014-Aug-22 04:30N 34°13' E 033°08'1212.7
2014-Aug-22 03:31N 34°16' E 032°53'1412.6
2014-Aug-22 02:27N 34°18' E 032°37'1212.9
2014-Aug-22 01:32N 34°20' E 032°23'1312.9
2014-Aug-22 00:33N 34°23' E 032°08'1312.7
2014-Aug-21 23:33N 34°25' E 031°53'1312.7
2014-Aug-21 22:32N 34°27' E 031°37'1212.5
2014-Aug-21 21:32N 34°30' E 031°23'1412.5
2014-Aug-21 20:24N 34°32' E 031°06'18612.4
2014-Aug-21 05:27N 35°07' E 027°23'9012.6
2014-Aug-20 22:18N 35°47' E 025°44'1013.0
2014-Aug-20 21:33N 35°52' E 025°34'1312.8
2014-Aug-20 20:33N 35°60' E 025°21'1312.7
2014-Aug-20 19:33N 36°06' E 025°08'1313.1
2014-Aug-20 18:32N 36°14' E 024°54'1212.7
2014-Aug-20 17:33N 36°21' E 024°41'1212.5
2014-Aug-20 16:33N 36°28' E 024°28'1212.4
2014-Aug-20 15:33N 36°34' E 024°15'1312.6
2014-Aug-20 14:33N 36°46' E 024°09'1312.7
2014-Aug-20 13:33N 36°57' E 024°03'1312.8
2014-Aug-20 12:33N 37°09' E 023°57'3013.3
2014-Aug-20 10:18N 37°37' E 023°44'1012.9
2014-Aug-20 09:33N 37°46' E 023°39'1111.2
2014-Aug-20 08:33N 37°57' E 023°35'5 0.1
2014-Aug-18 11:07N 38°02' E 023°36'1 2.1
2014-Aug-18 10:33N 38°01' E 023°34'1 1.3
2014-Aug-18 09:30N 38°02' E 023°33'0 0.0
2014-Aug-18 08:33N 38°02' E 023°33'0 0.1
2014-Aug-18 07:33N 38°02' E 023°33'0 0.0
2014-Aug-18 06:33N 38°02' E 023°33'3 3.1
2014-Aug-18 05:29N 37°58' E 023°33'5 5.3
2014-Aug-18 04:33N 37°53' E 023°34'0 0.1
2014-Aug-18 03:33N 37°53' E 023°33'0 0.0
2014-Aug-18 02:33N 37°53' E 023°33'0 0.0
2014-Aug-18 01:33N 37°53' E 023°34'0 0.0
2014-Aug-18 00:33N 37°53' E 023°34'0 0.0
2014-Aug-17 18:33N 37°53' E 023°34'8 8.0
2014-Aug-17 17:33N 37°48' E 023°41'1312.9
2014-Aug-17 16:33N 37°36' E 023°47'1913.3
2014-Aug-17 15:06N 37°17' E 023°54'813.6
2014-Aug-17 14:31N 37°10' E 023°58'1313.3
2014-Aug-17 13:33N 36°58' E 024°03'1313.4
2014-Aug-17 12:33N 36°45' E 024°09'1313.4
2014-Aug-17 11:33N 36°34' E 024°17'1313.2
2014-Aug-17 10:33N 36°26' E 024°31'1312.9
2014-Aug-17 09:33N 36°19' E 024°44'1312.8
2014-Aug-17 08:33N 36°12' E 024°57'1312.9
2014-Aug-17 07:33N 36°05' E 025°11'1313.2
2014-Aug-17 06:33N 35°58' E 025°24'1313.1
2014-Aug-17 05:33N 35°50' E 025°38'1313.1
2014-Aug-17 04:33N 35°43' E 025°51'1312.7
2014-Aug-17 03:33N 35°36' E 026°05'  
Track history (hours):
 
Tides and Currents Weather Stations Pressure Air Temp Water Temp Dewpoint Dewpoint Depression Visibility Wind Speed Wind Dir Waves Ship Positions

Mount Robson

Last reported at 2014-Aug-27 03:33 UTC. Time now 2014-Aug-31 00:37 UTC.
Position N 34°30' E 029°42'.

Length 181 m; draft 7.4 m.

Type: Tanker. MMSI: 210253000.

Date/timePositionNaut miles runAvg speedWind from/ knotsBaromVisibWave heightAir tempDewpointWater temp
2014-Aug-27 03:33N 34°30' E 029°42'1713.1
2014-Aug-27 02:14N 34°30' E 030°03'1013.4
2014-Aug-27 01:28N 34°30' E 030°15'1313.3
2014-Aug-27 00:29N 34°29' E 030°31'2613.5
2014-Aug-26 22:33N 34°28' E 031°03'1313.5
2014-Aug-26 21:33N 34°28' E 031°19'1313.4
2014-Aug-26 20:33N 34°27' E 031°35'1312.9
2014-Aug-26 19:33N 34°27' E 031°51'1312.8
2014-Aug-26 18:33N 34°26' E 032°07'1312.5
2014-Aug-26 17:33N 34°26' E 032°22'1312.8
2014-Aug-26 16:33N 34°25' E 032°37'1313.4
2014-Aug-26 15:33N 34°25' E 032°53'1312.8
2014-Aug-26 14:34N 34°25' E 033°09'1212.3
2014-Aug-26 13:33N 34°26' E 033°24'1212.5
2014-Aug-26 12:33N 34°27' E 033°39'1312.6
2014-Aug-26 11:33N 34°27' E 033°54'1312.8
2014-Aug-26 10:33N 34°28' E 034°10'1312.8
2014-Aug-26 09:33N 34°28' E 034°25'1312.9
2014-Aug-26 08:33N 34°29' E 034°41'5712.6
2014-Aug-26 04:05N 34°31' E 035°50'3 3.0
2014-Aug-26 03:04N 34°28' E 035°51'2 0.1
2014-Aug-25 01:27N 34°30' E 035°51'0 0.1
2014-Aug-25 00:22N 34°30' E 035°51'10 8.5
2014-Aug-24 23:10N 34°27' E 035°39'1313.3
2014-Aug-24 22:11N 34°14' E 035°33'912.8
2014-Aug-24 21:31N 34°06' E 035°32'1111.8
2014-Aug-24 20:33N 33°55' E 035°33'0 0.2
2014-Aug-24 19:33N 33°55' E 035°33'0 0.0
2014-Aug-24 16:33N 33°55' E 035°33'  
2014-Aug-22 04:30N 34°13' E 033°08'1212.7
2014-Aug-22 03:31N 34°16' E 032°53'1412.6
2014-Aug-22 02:27N 34°18' E 032°37'1212.9
2014-Aug-22 01:32N 34°20' E 032°23'1312.9
2014-Aug-22 00:33N 34°23' E 032°08'1312.7
2014-Aug-21 23:33N 34°25' E 031°53'1312.7
2014-Aug-21 22:32N 34°27' E 031°37'1212.5
2014-Aug-21 21:32N 34°30' E 031°23'1412.5
2014-Aug-21 20:24N 34°32' E 031°06'18612.4
2014-Aug-21 05:27N 35°07' E 027°23'9012.6
2014-Aug-20 22:18N 35°47' E 025°44'1013.0
2014-Aug-20 21:33N 35°52' E 025°34'1312.8
2014-Aug-20 20:33N 35°60' E 025°21'1312.7
2014-Aug-20 19:33N 36°06' E 025°08'1313.1
2014-Aug-20 18:32N 36°14' E 024°54'1212.7
2014-Aug-20 17:33N 36°21' E 024°41'1212.5
2014-Aug-20 16:33N 36°28' E 024°28'1212.4
2014-Aug-20 15:33N 36°34' E 024°15'1312.6
2014-Aug-20 14:33N 36°46' E 024°09'1312.7
2014-Aug-20 13:33N 36°57' E 024°03'1312.8
2014-Aug-20 12:33N 37°09' E 023°57'3013.3
2014-Aug-20 10:18N 37°37' E 023°44'1012.9
2014-Aug-20 09:33N 37°46' E 023°39'1111.2
2014-Aug-20 08:33N 37°57' E 023°35'5 0.1
2014-Aug-18 11:07N 38°02' E 023°36'1 2.1
2014-Aug-18 10:33N 38°01' E 023°34'1 1.3
2014-Aug-18 09:30N 38°02' E 023°33'0 0.0
2014-Aug-18 08:33N 38°02' E 023°33'0 0.1
2014-Aug-18 07:33N 38°02' E 023°33'0 0.0
2014-Aug-18 06:33N 38°02' E 023°33'3 3.1
2014-Aug-18 05:29N 37°58' E 023°33'5 5.3
2014-Aug-18 04:33N 37°53' E 023°34'0 0.1
2014-Aug-18 03:33N 37°53' E 023°33'0 0.0
2014-Aug-18 02:33N 37°53' E 023°33'0 0.0
2014-Aug-18 01:33N 37°53' E 023°34'0 0.0
2014-Aug-18 00:33N 37°53' E 023°34'0 0.0
2014-Aug-17 18:33N 37°53' E 023°34'8 8.0
2014-Aug-17 17:33N 37°48' E 023°41'1312.9
2014-Aug-17 16:33N 37°36' E 023°47'1913.3
2014-Aug-17 15:06N 37°17' E 023°54'813.6
2014-Aug-17 14:31N 37°10' E 023°58'1313.3
2014-Aug-17 13:33N 36°58' E 024°03'1313.4
2014-Aug-17 12:33N 36°45' E 024°09'1313.4
2014-Aug-17 11:33N 36°34' E 024°17'1313.2
2014-Aug-17 10:33N 36°26' E 024°31'1312.9
2014-Aug-17 09:33N 36°19' E 024°44'1312.8
2014-Aug-17 08:33N 36°12' E 024°57'1312.9
2014-Aug-17 07:33N 36°05' E 025°11'1313.2
2014-Aug-17 06:33N 35°58' E 025°24'1313.1
2014-Aug-17 05:33N 35°50' E 025°38'1313.1
2014-Aug-17 04:33N 35°43' E 025°51'1312.7
2014-Aug-17 03:33N 35°36' E 026°05'  

Dump ship's entire track history